CheckWX is a tool to help pilots better visualize weather data.  It is not intended as a substitute for an official pre-flight weather briefing.

10:06:20 UTC

LERT TAF
Rota Naval Station Airport
Rota, Spain
TAF LERT 260800Z 2609/2618 26008KT 9999 SCT015

Jun-26@
09:00 UTC

Jun-26 @ 09:00 UTC

Jun-26@
18:00 UTC

Jun-26 @ 18:00 UTC

TAF LERT 260800Z 2609/2618 26008KT 9999 SCT015
Wind
  • 260° at 8 KTS
Cloud Levels
  • Scattered at 1,500' AGL